Hawaiian Chieftain — WDC8751 — position and weather

sailwx.info

Track history (hours):
 
Tides and Currents Weather Stations Pressure Air Temp Water Temp Dewpoint Dewpoint Depression Visibility Wind Speed Wind Dir Waves Ship Positions

Hawaiian Chieftain (United States)

Operated briefly as "Spirt of Larinda". When she sailed from Sausalito, California, callsign was WAA7737.

Ship's website: http://www.historicalseaport.org/HawaiianChieftain.htm

Owner: GRAYS HARBOR HISTORICAL SEAPORT AUTHORITY, ABERDEEN, WA. More information available from US FCC via Universal Licensing System and Coast Guard Vessel Documentation Center.

Last reported at 2019-Jun-09 21:57 UTC. Time now 2019-Jun-16 14:35 UTC.
Position N 48°21' W 124°24'.

Length 20 m.

Type: Sailing vessel. MMSI: 367092520.

Date/timePositionNaut miles runAvg speedWind from/ knotsBaromVisibWave heightAir tempDewpointWater temp
2019-Jun-09 21:57N 48°21' W 124°24'2 4.4
2019-Jun-09 21:29N 48°22' W 124°27'2 4.7
2019-Jun-09 21:01N 48°23' W 124°30'2 4.4
2019-Jun-09 20:29N 48°24' W 124°33'2 4.6
2019-Jun-09 20:01N 48°25' W 124°36'2 4.4
2019-Jun-09 19:31N 48°26' W 124°39'2 4.3
2019-Jun-09 19:00N 48°27' W 124°42'93 4.9
2019-Jun-09 00:04N 46°56' W 124°14'  
2019-Jun-02 08:01N 46°45' W 124°19'4 1.3
2019-Jun-02 04:51N 46°43' W 124°25'2 4.4
2019-Jun-02 04:29N 46°42' W 124°23'2 4.0
2019-Jun-02 03:58N 46°41' W 124°21'2 4.3
2019-Jun-02 03:30N 46°39' W 124°19'2 4.2
2019-Jun-02 03:00N 46°38' W 124°17'2 3.7
2019-Jun-02 02:29N 46°36' W 124°16'2 4.2
2019-Jun-02 02:00N 46°34' W 124°15'2 4.2
2019-Jun-02 01:30N 46°32' W 124°13'2 4.2
2019-Jun-02 01:00N 46°30' W 124°12'2 3.9
2019-Jun-02 00:30N 46°28' W 124°11'3 4.2
2019-Jun-01 23:45N 46°25' W 124°11'2 4.4
2019-Jun-01 23:19N 46°23' W 124°11'1 4.3
2019-Jun-01 23:00N 46°22' W 124°11'2 4.2
2019-Jun-01 22:30N 46°20' W 124°11'2 4.2
2019-Jun-01 22:00N 46°18' W 124°11'2 4.2
2019-Jun-01 21:30N 46°16' W 124°12'2 4.6
2019-Jun-01 21:00N 46°13' W 124°12'3 5.1
2019-Jun-01 20:25N 46°11' W 124°12'2 5.3
2019-Jun-01 20:00N 46°08' W 124°12'3 5.3
2019-Jun-01 19:30N 46°06' W 124°12'3 5.5
2019-Jun-01 19:00N 46°03' W 124°11'3 5.6
2019-Jun-01 18:30N 46°00' W 124°11'3 6.1
2019-Jun-01 18:00N 45°57' W 124°10'3 6.3
2019-Jun-01 17:28N 45°54' W 124°09'3 6.0
2019-Jun-01 17:00N 45°51' W 124°09'3 5.9
2019-Jun-01 16:30N 45°48' W 124°09'4 5.6
2019-Jun-01 15:50N 45°44' W 124°09'2 5.5
2019-Jun-01 15:29N 45°42' W 124°08'3 5.3
2019-Jun-01 15:00N 45°40' W 124°08'  
Track history (hours):
 
Tides and Currents Weather Stations Pressure Air Temp Water Temp Dewpoint Dewpoint Depression Visibility Wind Speed Wind Dir Waves Ship Positions

Hawaiian Chieftain (United States)

Operated briefly as "Spirt of Larinda". When she sailed from Sausalito, California, callsign was WAA7737.

Ship's website: http://www.historicalseaport.org/HawaiianChieftain.htm

Owner: GRAYS HARBOR HISTORICAL SEAPORT AUTHORITY, ABERDEEN, WA. More information available from US FCC via Universal Licensing System and Coast Guard Vessel Documentation Center.

Last reported at 2019-Jun-09 21:57 UTC. Time now 2019-Jun-16 14:35 UTC.
Position N 48°21' W 124°24'.

Length 20 m.

Type: Sailing vessel. MMSI: 367092520.

Date/timePositionNaut miles runAvg speedWind from/ knotsBaromVisibWave heightAir tempDewpointWater temp
2019-Jun-09 21:57N 48°21' W 124°24'2 4.4
2019-Jun-09 21:29N 48°22' W 124°27'2 4.7
2019-Jun-09 21:01N 48°23' W 124°30'2 4.4
2019-Jun-09 20:29N 48°24' W 124°33'2 4.6
2019-Jun-09 20:01N 48°25' W 124°36'2 4.4
2019-Jun-09 19:31N 48°26' W 124°39'2 4.3
2019-Jun-09 19:00N 48°27' W 124°42'93 4.9
2019-Jun-09 00:04N 46°56' W 124°14'  
2019-Jun-02 08:01N 46°45' W 124°19'4 1.3
2019-Jun-02 04:51N 46°43' W 124°25'2 4.4
2019-Jun-02 04:29N 46°42' W 124°23'2 4.0
2019-Jun-02 03:58N 46°41' W 124°21'2 4.3
2019-Jun-02 03:30N 46°39' W 124°19'2 4.2
2019-Jun-02 03:00N 46°38' W 124°17'2 3.7
2019-Jun-02 02:29N 46°36' W 124°16'2 4.2
2019-Jun-02 02:00N 46°34' W 124°15'2 4.2
2019-Jun-02 01:30N 46°32' W 124°13'2 4.2
2019-Jun-02 01:00N 46°30' W 124°12'2 3.9
2019-Jun-02 00:30N 46°28' W 124°11'3 4.2
2019-Jun-01 23:45N 46°25' W 124°11'2 4.4
2019-Jun-01 23:19N 46°23' W 124°11'1 4.3
2019-Jun-01 23:00N 46°22' W 124°11'2 4.2
2019-Jun-01 22:30N 46°20' W 124°11'2 4.2
2019-Jun-01 22:00N 46°18' W 124°11'2 4.2
2019-Jun-01 21:30N 46°16' W 124°12'2 4.6
2019-Jun-01 21:00N 46°13' W 124°12'3 5.1
2019-Jun-01 20:25N 46°11' W 124°12'2 5.3
2019-Jun-01 20:00N 46°08' W 124°12'3 5.3
2019-Jun-01 19:30N 46°06' W 124°12'3 5.5
2019-Jun-01 19:00N 46°03' W 124°11'3 5.6
2019-Jun-01 18:30N 46°00' W 124°11'3 6.1
2019-Jun-01 18:00N 45°57' W 124°10'3 6.3
2019-Jun-01 17:28N 45°54' W 124°09'3 6.0
2019-Jun-01 17:00N 45°51' W 124°09'3 5.9
2019-Jun-01 16:30N 45°48' W 124°09'4 5.6
2019-Jun-01 15:50N 45°44' W 124°09'2 5.5
2019-Jun-01 15:29N 45°42' W 124°08'3 5.3
2019-Jun-01 15:00N 45°40' W 124°08'  

Dump ship's entire track history